Pagina principală
METAR-TAF:

METAR-TAF

Aeroporturi :

Stampede Pass, Washington, Statele Unite ale Americii

Latitudine: 47-16-36N, longitudine: 121-20-14W, elevație: 1207 m

Observații meteo curente

Raportul a fost făcut în urmă cu 15 ore și 20 de minute, la 14:56 UTC
Vânt 6 kt din direcții variabile
Temperatură 1°C
Umiditate 100%
Presiune 1014 hPa
Vizibilitate: 0.4 km
zăpadă slabă, ceață

METAR: KSMP 151456Z AUTO VRB06KT 1/4SM -SN FG VV002 01/01 A2995 RMK AO2 SLP153 P0003 60019 T00110011 50000 $

Ora: 23:16 (06:16 UTC)


TAF: lipsă

Observații și prognoze meteo pentru peste 4.000 de aeroporturi (rapoarte METAR și TAF).

Stațiile disponibile sunt reprezentate pe hartă prin puncte galbene și roșii.

Țineți indicatorul mouse-ului pe punctul dorit pentru a vedea denumirea stației.

Apoi, faceți clic pentru a vedea observațiile și prognozele meteorologice.

Pentru a schimba harta: Pentru mărire, faceți clic pe butoanele verzi cu cruce neagră; pentru micșorare, pe butonul verde cu o liniuță; pentru hărți învecinate, pe săgețile verzi.


METAR-TAF: